Norman Park, GA (31771)

9:58 AM EDT on July 25, 2014 (GMT -0400)
City of Moultrie Service Center (KGAMOULT2) Elev 299 ft | 31.19 °N, 83.79 °W | Change Station

Current weather conditions updated 7 minutes ago

Partly Cloudy
Partly Cloudy
81.1 °F
Feels Like 88 °F
N
2.0
Wind Variable Wind from West
Gusts 9.0 mph

Today is forecast to be nearly the same temperature as yesterday. Scattered thunderstorms.

Today
High -- | Low -- °F
--% Chance of Precip.
Yesterday
High -- | Low -- °F
Precip. -- in
6:47 AM 8:35 PM
Waning Crescent, 2% visible
Pressure 30.08 in
Visibility 10.0 miles
Clouds Clear
Heat Index 88 °F
Dew Point 76 °F
Humidity 85%
Rainfall 0.00 in
Snow Depth Not available.
UV 4 out of 12
Pollen 4.70 out of 12
Air Quality Not available.
Flu Activity Not available.
METAR KMGR 251335Z AUTO 28005KT 10SM CLR 27/25 A3008 RMK AO2

More Conditions Fewer Conditions

Pressure 30.08 in
Visibility 10.0 miles
Clouds Clear
Heat Index 88 °F
Dew Point 76 °F
Humidity 85%
Rainfall 0.00 in
Snow Depth Not available.
UV 4 out of 12
Pollen 4.70 out of 12
Air Quality Not available.
Flu Activity Not available.
METAR KMGR 251335Z AUTO 28005KT 10SM CLR 27/25 A3008 RMK AO2

More Conditions Fewer Conditions

10-Day Weather Forecast

Almanac

Astronomy

Jul. 25, 2014 Rise Set
Actual Time 6:47 AM EDT 8:35 PM EDT
Civil Twilight 6:20 AM EDT 9:01 PM EDT
Nautical Twilight 5:48 AM EDT 9:34 PM EDT
Astronomical Twilight 5:13 AM EDT 10:08 PM EDT
Moon 5:43 AM EDT 7:34 PM EDT
Length of Visible Light 14h 41m
Length of Day
13h 48m
Tomorrow will be 1m 15s shorter.
Waning Crescent, 2% of the Moon is Illuminated
Today
Waning Crescent
Jul 26
New
Aug 3
First Quarter
Aug 10
Full
Aug 17
Last Quarter

Today's Extremes

State Highs State Lows

Community

WunderPhotos

Upload Photos

1,737,324 photos uploaded!

Nearby

Snow Depth

Station Depth Elevation
No new snow has been reported.

Earthquake Activity

City Distance Mag. Time & Date
No recent earthquake activity has been reported nearby.
Minimum magnitude displayed is 2.5.

Coastal Water Temperatures

Place Temperature
No Stations Reporting

Nearby Weather Stations

Station Location Temp. Heat Index Dew Point Humidity Wind Precip. Elev Updated Type
City of Moultrie Service Center, Moultrie, GA 81.1 °F 88 °F 76 °F 85% West  at  2.0 mph 0.00 in / hr 299 ft 9:51 AM EDT Normal
RAWS ADEL GA, Cecil, GA 80 °F 85 °F 76 °F 88% WSW  at  5 mph 0.00 in / hr 231 ft 9:04 AM EDT MADIS
Adel, Georgia, Adel, GA 74.3 °F 73 °F 71 °F 90% SSW  at  0.0 mph 0.00 in / hr 253 ft 7:19 AM EDT Rapid Fire
Wood Triple Lake Road, Tifton, GA 83.1 °F 92 °F 77 °F 81% West  at  2.0 mph 0.00 in / hr 322 ft 9:55 AM EDT Normal
Worth County High School, Sylvester, GA 80.8 °F 87 °F 75 °F 83% SE  at  5.0 mph 0.00 in / hr 436 ft 9:50 AM EDT Normal
Forest Lakes, Tifton, GA 80.0 °F 85 °F 76 °F 89% WSW  at  3.0 mph 0.00 in / hr 329 ft 9:55 AM EDT Normal

Show More Stations Show Fewer Stations